createdAt,value
2023-03-25T00:04:45.571Z,8.90
2023-03-25T00:09:49.195Z,8.90
2023-03-25T00:14:55.850Z,8.80
2023-03-25T00:20:02.502Z,8.80
2023-03-25T00:25:06.441Z,8.80
2023-03-25T00:30:11.229Z,8.80
2023-03-25T00:35:19.964Z,8.70
2023-03-25T00:40:23.579Z,8.70
2023-03-25T00:45:26.963Z,8.70
2023-03-25T00:50:31.732Z,8.70
2023-03-25T00:55:35.145Z,8.80
2023-03-25T01:00:38.491Z,8.90
2023-03-25T01:05:43.366Z,8.90
2023-03-25T01:10:46.732Z,8.90
2023-03-25T01:15:50.537Z,9.00
2023-03-25T01:20:55.497Z,9.00
2023-03-25T01:25:58.966Z,8.90
2023-03-25T01:31:03.046Z,8.90
2023-03-25T01:36:10.604Z,9.00
2023-03-25T01:41:13.960Z,8.90
2023-03-25T01:46:19.425Z,8.80
2023-03-25T01:51:28.528Z,8.70
2023-03-25T01:56:34.847Z,8.60
2023-03-25T02:01:38.669Z,8.60
2023-03-25T02:06:46.071Z,8.70
2023-03-25T02:11:50.520Z,8.60
2023-03-25T02:17:04.351Z,8.50
2023-03-25T02:22:51.785Z,8.60
2023-03-25T02:28:03.764Z,8.50
2023-03-25T02:33:33.774Z,8.50
2023-03-25T02:38:43.720Z,8.50
2023-03-25T02:43:52.628Z,8.50
2023-03-25T02:49:00.011Z,8.50
2023-03-25T02:54:09.847Z,8.50
2023-03-25T02:59:15.376Z,8.50
2023-03-25T03:04:18.766Z,8.40
2023-03-25T03:09:37.580Z,8.30
2023-03-25T03:14:57.355Z,8.30
2023-03-25T03:20:05.323Z,8.40
2023-03-25T03:25:22.080Z,8.50
2023-03-25T03:30:32.632Z,8.30
2023-03-25T03:35:39.256Z,8.30
2023-03-25T03:40:47.264Z,8.30
2023-03-25T03:45:55.292Z,8.20
2023-03-25T03:51:04.421Z,8.10
2023-03-25T03:56:13.814Z,9.80
2023-03-25T04:01:30.474Z,7.90
2023-03-25T04:06:42.065Z,7.80
2023-03-25T04:11:54.453Z,7.80
2023-03-25T04:16:59.816Z,7.60
2023-03-25T04:22:03.653Z,7.50
2023-03-25T04:27:09.831Z,7.30
2023-03-25T04:32:13.547Z,7.30
2023-03-25T04:37:16.972Z,7.20
2023-03-25T04:42:21.735Z,7.20
2023-03-25T04:47:27.143Z,7.20
2023-03-25T04:52:30.576Z,7.20
2023-03-25T04:57:35.377Z,7.20
2023-03-25T05:02:39.133Z,7.20
2023-03-25T05:07:45.530Z,7.30
2023-03-25T05:12:50.516Z,7.40
2023-03-25T05:17:53.980Z,7.60
2023-03-25T05:22:57.695Z,7.70
2023-03-25T05:28:05.921Z,7.70
2023-03-25T05:33:10.342Z,7.70
2023-03-25T05:38:16.758Z,7.70
2023-03-25T05:43:23.043Z,7.80
2023-03-25T05:48:26.520Z,7.90
2023-03-25T05:53:31.278Z,8.00
2023-03-25T05:58:36.482Z,8.10
2023-03-25T06:03:39.875Z,8.20
2023-03-25T06:08:43.467Z,8.20
2023-03-25T06:13:50.760Z,8.30
2023-03-25T06:18:56.507Z,8.30
2023-03-25T06:24:01.420Z,8.20
2023-03-25T06:29:06.139Z,8.20
2023-03-25T06:34:09.472Z,8.20
2023-03-25T06:39:14.228Z,8.20
2023-03-25T06:44:24.541Z,8.20
2023-03-25T06:49:28.401Z,8.20
2023-03-25T06:54:33.531Z,8.30
2023-03-25T06:59:40.238Z,8.30
2023-03-25T07:04:43.556Z,8.50
2023-03-25T07:09:46.943Z,8.40
2023-03-25T07:14:54.149Z,8.40
2023-03-25T07:19:57.549Z,8.50
2023-03-25T07:25:00.917Z,8.60
2023-03-25T07:30:06.523Z,8.50
2023-03-25T07:35:10.671Z,8.50
2023-03-25T07:40:14.687Z,8.60
2023-03-25T07:45:19.600Z,8.60
2023-03-25T07:50:25.474Z,8.70
2023-03-25T07:55:29.460Z,9.10
2023-03-25T08:00:34.218Z,9.50
2023-03-25T08:05:38.186Z,9.60
2023-03-25T08:10:44.002Z,9.60
2023-03-25T08:15:48.931Z,9.80
2023-03-25T08:20:52.503Z,9.60
2023-03-25T08:25:56.557Z,9.80
2023-03-25T08:31:02.523Z,9.80
2023-03-25T08:36:06.721Z,9.60
2023-03-25T08:41:10.241Z,9.70
2023-03-25T08:46:15.148Z,9.50
2023-03-25T08:51:19.091Z,9.70
2023-03-25T08:56:22.668Z,9.90
2023-03-25T09:01:31.014Z,10.10
2023-03-25T09:06:48.078Z,10.60
2023-03-25T09:12:03.183Z,10.80
2023-03-25T09:17:10.260Z,10.80
2023-03-25T09:22:13.593Z,10.90
2023-03-25T09:27:16.882Z,10.20
2023-03-25T09:32:21.722Z,11.00
2023-03-25T09:37:25.134Z,11.10
2023-03-25T09:42:38.821Z,11.50
2023-03-25T09:47:51.933Z,11.40
2023-03-25T09:53:01.924Z,10.70
2023-03-25T09:58:26.563Z,11.20
2023-03-25T10:03:36.646Z,11.40
2023-03-25T10:08:48.479Z,11.40
2023-03-25T10:13:57.120Z,10.90
2023-03-25T10:19:17.854Z,11.10
2023-03-25T10:24:24.895Z,12.40
2023-03-25T10:29:33.905Z,11.50
2023-03-25T10:34:42.766Z,11.30
2023-03-25T10:39:47.661Z,11.40
2023-03-25T10:44:51.325Z,11.60
2023-03-25T10:49:56.964Z,10.10
2023-03-25T10:55:00.922Z,11.40
2023-03-25T11:00:12.868Z,12.50
2023-03-25T11:05:20.574Z,12.30
2023-03-25T11:10:26.140Z,12.80
2023-03-25T11:15:33.623Z,12.50
2023-03-25T11:20:41.247Z,13.10
2023-03-25T11:25:45.341Z,12.70
2023-03-25T11:31:12.526Z,11.80
2023-03-25T11:36:30.081Z,11.90
2023-03-25T11:41:35.513Z,12.10
2023-03-25T11:46:44.614Z,11.00
2023-03-25T11:51:51.279Z,11.00
2023-03-25T11:56:58.935Z,10.20
2023-03-25T12:02:04.618Z,9.10
2023-03-25T12:07:11.158Z,8.60
2023-03-25T12:12:35.159Z,8.10
2023-03-25T12:17:52.848Z,9.20
2023-03-25T12:23:03.535Z,11.00
2023-03-25T12:28:30.888Z,11.40
2023-03-25T12:33:48.178Z,12.30
2023-03-25T12:39:04.641Z,11.90
2023-03-25T12:44:12.701Z,11.30
2023-03-25T12:49:33.753Z,12.80
2023-03-25T12:54:53.024Z,11.90
2023-03-25T13:00:26.848Z,11.40
2023-03-25T13:05:37.175Z,12.70
2023-03-25T13:10:44.784Z,12.90
2023-03-25T13:15:51.228Z,12.90
2023-03-25T13:21:03.521Z,9.50
2023-03-25T13:26:19.036Z,11.00
2023-03-25T13:31:27.445Z,10.90
2023-03-25T13:36:36.192Z,10.70
2023-03-25T13:41:45.889Z,10.30
2023-03-25T13:46:54.679Z,9.60
2023-03-25T13:52:00.179Z,9.30
2023-03-25T13:57:43.503Z,9.00
2023-03-25T14:03:14.572Z,8.80
2023-03-25T14:09:09.243Z,8.90
2023-03-25T14:14:17.906Z,9.00
2023-03-25T14:19:28.272Z,9.30
2023-03-25T14:24:35.236Z,10.50
2023-03-25T14:29:42.266Z,11.60
2023-03-25T14:34:47.210Z,11.40
2023-03-25T14:39:50.753Z,11.70
2023-03-25T14:45:15.821Z,12.50
2023-03-25T14:50:35.394Z,12.00
2023-03-25T14:55:45.465Z,13.00
2023-03-25T15:00:55.609Z,11.80
2023-03-25T15:06:02.828Z,12.90
2023-03-25T15:11:09.749Z,12.30
2023-03-25T15:16:21.008Z,11.20
2023-03-25T15:21:26.890Z,10.70
2023-03-25T15:26:33.307Z,10.40
2023-03-25T15:31:49.935Z,10.40
2023-03-25T15:37:14.300Z,8.80
2023-03-25T15:42:51.588Z,8.30
2023-03-25T15:48:25.984Z,8.30
2023-03-25T15:53:58.567Z,10.80
2023-03-25T15:59:07.052Z,13.20
2023-03-25T16:04:18.754Z,12.90
2023-03-25T16:09:28.931Z,12.40
2023-03-25T16:14:34.259Z,11.60
2023-03-25T16:19:42.297Z,10.80
2023-03-25T16:24:50.199Z,10.00
2023-03-25T16:29:55.893Z,9.90
2023-03-25T16:34:59.904Z,9.90
2023-03-25T16:40:10.477Z,9.80
2023-03-25T16:45:17.224Z,9.80
2023-03-25T16:50:21.069Z,9.80
2023-03-25T16:55:42.984Z,9.60
2023-03-25T17:00:49.686Z,9.60
2023-03-25T17:05:57.578Z,9.40
2023-03-25T17:11:02.340Z,9.60
2023-03-25T17:16:08.706Z,9.60
2023-03-25T17:21:13.838Z,9.20
2023-03-25T17:26:21.081Z,9.10
2023-03-25T17:31:33.258Z,8.90
2023-03-25T17:36:38.355Z,8.90
2023-03-25T17:41:43.390Z,8.90
2023-03-25T17:46:46.943Z,9.10
2023-03-25T17:51:50.637Z,9.00
2023-03-25T17:56:55.446Z,9.00
2023-03-25T18:01:59.052Z,9.00
2023-03-25T18:07:03.244Z,8.90
2023-03-25T18:12:08.460Z,11.20
2023-03-25T18:17:13.564Z,8.80
2023-03-25T18:22:20.187Z,8.60
2023-03-25T18:27:33.565Z,8.50
2023-03-25T18:32:44.664Z,8.60
2023-03-25T18:37:48.917Z,8.40
2023-03-25T18:42:54.514Z,8.40
2023-03-25T18:47:58.114Z,8.60
2023-03-25T18:53:01.654Z,8.40
2023-03-25T18:58:07.931Z,8.10
2023-03-25T19:03:11.646Z,8.10
2023-03-25T19:08:18.238Z,8.00
2023-03-25T19:13:22.951Z,7.90
2023-03-25T19:18:27.858Z,7.80
2023-03-25T19:23:31.546Z,7.60
2023-03-25T19:28:36.310Z,7.60
2023-03-25T19:33:39.571Z,7.60
2023-03-25T19:38:42.934Z,7.50
2023-03-25T19:43:47.812Z,7.90
2023-03-25T19:48:52.105Z,7.60
2023-03-25T19:53:55.897Z,7.60
2023-03-25T19:59:00.717Z,7.60
2023-03-25T20:04:04.235Z,7.50
2023-03-25T20:09:08.264Z,7.60
2023-03-25T20:14:13.233Z,7.50
2023-03-25T20:19:16.846Z,7.60
2023-03-25T20:24:20.294Z,7.70
2023-03-25T20:29:25.152Z,7.80
2023-03-25T20:34:28.754Z,8.40
2023-03-25T20:39:32.341Z,7.90
2023-03-25T20:44:37.194Z,7.80
2023-03-25T20:49:40.771Z,7.70
2023-03-25T20:54:44.254Z,7.70
2023-03-25T20:59:49.126Z,7.80
2023-03-25T21:04:55.362Z,7.90
2023-03-25T21:09:59.233Z,7.90
2023-03-25T21:15:04.659Z,7.90
2023-03-25T21:20:09.714Z,7.80
2023-03-25T21:25:15.284Z,7.80
2023-03-25T21:30:20.131Z,7.80
2023-03-25T21:35:24.093Z,7.90
2023-03-25T21:40:27.761Z,8.00
2023-03-25T21:45:44.724Z,8.00
2023-03-25T21:50:51.902Z,8.10
2023-03-25T21:56:00.261Z,8.10
2023-03-25T22:01:10.391Z,8.10
2023-03-25T22:06:15.953Z,8.10
2023-03-25T22:11:21.968Z,8.00
2023-03-25T22:16:27.727Z,8.00
2023-03-25T22:21:33.285Z,8.00
2023-03-25T22:26:39.356Z,8.00
2023-03-25T22:31:44.218Z,7.90
2023-03-25T22:36:51.110Z,7.80
2023-03-25T22:41:55.589Z,7.70
2023-03-25T22:47:00.615Z,7.60
2023-03-25T22:52:04.161Z,7.50
2023-03-25T22:57:07.698Z,7.50
2023-03-25T23:02:14.651Z,7.60
2023-03-25T23:07:18.727Z,7.60
2023-03-25T23:12:24.040Z,7.70
2023-03-25T23:17:29.122Z,7.80
2023-03-25T23:22:32.669Z,7.80
2023-03-25T23:27:36.287Z,7.80
2023-03-25T23:32:42.216Z,7.70
2023-03-25T23:37:46.531Z,7.60
2023-03-25T23:42:49.976Z,7.60
2023-03-25T23:47:55.049Z,7.50
2023-03-25T23:53:01.686Z,7.60
2023-03-25T23:58:05.450Z,7.70
